createdAt,value
2022-12-08T00:01:42.607Z,99.37
2022-12-08T00:04:11.062Z,98.99
2022-12-08T00:07:01.269Z,98.10
2022-12-08T00:09:32.041Z,97.63
2022-12-08T00:12:10.358Z,98.55
2022-12-08T00:14:45.320Z,97.82
2022-12-08T00:17:16.184Z,97.92
2022-12-08T00:19:45.145Z,98.40
2022-12-08T00:22:14.767Z,98.67
2022-12-08T00:24:45.584Z,98.78
2022-12-08T00:27:15.921Z,98.17
2022-12-08T00:29:45.662Z,98.61
2022-12-08T00:32:13.887Z,98.74
2022-12-08T00:34:41.544Z,98.74
2022-12-08T00:37:09.590Z,98.92
2022-12-08T00:39:37.238Z,98.75
2022-12-08T00:42:14.338Z,98.87
2022-12-08T00:44:46.590Z,98.52
2022-12-08T00:47:15.275Z,97.72
2022-12-08T00:49:43.020Z,97.77
2022-12-08T00:52:12.732Z,97.30
2022-12-08T00:54:40.327Z,95.32
2022-12-08T00:57:08.367Z,95.57
2022-12-08T00:59:36.008Z,96.95
2022-12-08T01:02:04.213Z,95.95
2022-12-08T01:04:50.515Z,96.95
2022-12-08T01:07:18.524Z,97.37
2022-12-08T01:09:47.707Z,97.74
2022-12-08T01:12:15.704Z,97.03
2022-12-08T01:14:43.405Z,96.62
2022-12-08T01:17:11.420Z,96.95
2022-12-08T01:19:39.079Z,97.07
2022-12-08T01:22:07.141Z,96.24
2022-12-08T01:24:35.579Z,95.74
2022-12-08T01:27:03.480Z,95.61
2022-12-08T01:29:31.121Z,96.30
2022-12-08T01:31:59.050Z,97.10
2022-12-08T01:34:26.651Z,95.67
2022-12-08T01:36:54.941Z,96.08
2022-12-08T01:39:37.853Z,96.71
2022-12-08T01:42:06.014Z,95.91
2022-12-08T01:44:33.420Z,96.77
2022-12-08T01:47:01.426Z,95.80
2022-12-08T01:49:34.299Z,96.74
2022-12-08T01:52:18.539Z,94.78
2022-12-08T01:54:59.835Z,95.41
2022-12-08T01:57:53.018Z,95.44
2022-12-08T02:00:22.906Z,94.92
2022-12-08T02:03:20.603Z,94.71
2022-12-08T02:05:48.837Z,93.69
2022-12-08T02:08:17.883Z,94.00
2022-12-08T02:10:52.357Z,93.57
2022-12-08T02:13:23.300Z,92.71
2022-12-08T02:16:27.530Z,93.71
2022-12-08T02:19:33.648Z,94.59
2022-12-08T02:22:20.488Z,95.67
2022-12-08T02:25:17.769Z,95.54
2022-12-08T02:28:03.665Z,95.12
2022-12-08T02:30:54.646Z,94.84
2022-12-08T02:34:17.568Z,94.36
2022-12-08T02:37:11.493Z,94.46
2022-12-08T02:39:42.729Z,93.12
2022-12-08T02:42:45.133Z,93.16
2022-12-08T02:45:55.535Z,94.12
2022-12-08T02:48:28.866Z,93.72
2022-12-08T02:50:56.758Z,94.21
2022-12-08T02:53:24.969Z,93.88
2022-12-08T02:56:06.394Z,94.54
2022-12-08T02:58:54.968Z,94.05
2022-12-08T03:01:34.771Z,93.77
2022-12-08T03:04:17.663Z,94.80
2022-12-08T03:07:02.715Z,94.27
2022-12-08T03:09:56.733Z,93.97
2022-12-08T03:12:56.329Z,94.82
2022-12-08T03:15:24.857Z,95.27
2022-12-08T03:17:58.414Z,96.12
2022-12-08T03:20:30.173Z,96.78
2022-12-08T03:23:02.132Z,96.23
2022-12-08T03:25:34.477Z,96.72
2022-12-08T03:28:02.272Z,95.17
2022-12-08T03:30:34.894Z,94.12
2022-12-08T03:33:23.658Z,94.30
2022-12-08T03:35:53.619Z,95.27
2022-12-08T03:38:21.935Z,95.37
2022-12-08T03:41:09.864Z,95.16
2022-12-08T03:43:38.328Z,95.14
2022-12-08T03:46:06.493Z,95.58
2022-12-08T03:48:34.358Z,94.84
2022-12-08T03:51:02.502Z,95.58
2022-12-08T03:53:30.224Z,95.80
2022-12-08T03:55:58.382Z,96.52
2022-12-08T03:58:25.937Z,96.50
2022-12-08T04:00:53.915Z,96.43
2022-12-08T04:03:21.649Z,96.39
2022-12-08T04:05:49.604Z,96.43
2022-12-08T04:08:17.316Z,96.42
2022-12-08T04:10:45.271Z,96.13
2022-12-08T04:13:12.820Z,96.19
2022-12-08T04:15:45.239Z,96.49
2022-12-08T04:18:13.585Z,96.40
2022-12-08T04:20:46.371Z,96.77
2022-12-08T04:23:14.036Z,97.58
2022-12-08T04:25:42.087Z,96.52
2022-12-08T04:28:09.791Z,96.14
2022-12-08T04:30:37.804Z,95.93
2022-12-08T04:33:06.030Z,94.93
2022-12-08T04:35:33.989Z,94.84
2022-12-08T04:38:01.933Z,93.96
2022-12-08T04:40:29.810Z,93.18
2022-12-08T04:42:57.385Z,93.33
2022-12-08T04:45:25.339Z,93.75
2022-12-08T04:47:53.033Z,93.09
2022-12-08T04:50:20.975Z,93.15
2022-12-08T04:52:48.578Z,93.20
2022-12-08T04:55:16.705Z,92.98
2022-12-08T04:57:44.310Z,93.12
2022-12-08T05:00:13.709Z,93.22
2022-12-08T05:02:41.514Z,91.92
2022-12-08T05:05:10.273Z,91.28
2022-12-08T05:07:38.455Z,90.74
2022-12-08T05:10:07.606Z,89.65
2022-12-08T05:12:36.121Z,89.91
2022-12-08T05:15:04.605Z,89.65
2022-12-08T05:17:32.100Z,89.55
2022-12-08T05:20:00.046Z,89.02
2022-12-08T05:22:27.694Z,89.17
2022-12-08T05:24:55.628Z,88.72
2022-12-08T05:27:23.151Z,89.68
2022-12-08T05:29:51.027Z,89.28
2022-12-08T05:32:18.538Z,89.52
2022-12-08T05:34:46.594Z,89.47
2022-12-08T05:37:14.266Z,90.31
2022-12-08T05:39:42.136Z,90.75
2022-12-08T05:42:09.748Z,91.02
2022-12-08T05:44:37.842Z,90.57
2022-12-08T05:47:05.575Z,91.27
2022-12-08T05:49:33.946Z,91.27
2022-12-08T05:52:02.061Z,91.30
2022-12-08T05:54:30.509Z,91.63
2022-12-08T05:56:58.283Z,91.87
2022-12-08T05:59:26.320Z,91.78
2022-12-08T06:01:53.933Z,92.76
2022-12-08T06:04:22.294Z,92.29
2022-12-08T06:06:50.116Z,92.67
2022-12-08T06:09:18.044Z,91.85
2022-12-08T06:11:47.239Z,91.52
2022-12-08T06:14:15.042Z,91.82
2022-12-08T06:16:42.715Z,92.25
2022-12-08T06:19:10.785Z,91.62
2022-12-08T06:21:38.532Z,91.79
2022-12-08T06:24:06.725Z,92.24
2022-12-08T06:26:36.190Z,92.19
2022-12-08T06:29:05.184Z,92.26
2022-12-08T06:31:32.847Z,92.62
2022-12-08T06:34:00.959Z,92.56
2022-12-08T06:36:28.805Z,92.92
2022-12-08T06:38:57.292Z,93.50
2022-12-08T06:41:25.542Z,93.36
2022-12-08T06:43:57.627Z,93.34
2022-12-08T06:46:25.559Z,94.07
2022-12-08T06:48:54.372Z,94.91
2022-12-08T06:51:25.596Z,94.78
2022-12-08T06:53:53.694Z,94.74
2022-12-08T06:56:23.951Z,94.46
2022-12-08T06:58:52.958Z,94.53
2022-12-08T07:01:21.062Z,94.91
2022-12-08T07:03:49.195Z,94.84
2022-12-08T07:06:25.421Z,94.70
2022-12-08T07:08:53.377Z,94.82
2022-12-08T07:11:22.363Z,95.38
2022-12-08T07:13:51.164Z,95.08
2022-12-08T07:16:19.037Z,95.60
2022-12-08T07:18:47.157Z,96.08
2022-12-08T07:21:16.152Z,96.14
2022-12-08T07:23:50.239Z,94.83
2022-12-08T07:26:21.974Z,94.73
2022-12-08T07:28:49.915Z,93.66
2022-12-08T07:31:24.945Z,93.99
2022-12-08T07:33:53.863Z,94.55
2022-12-08T07:36:22.919Z,94.25
2022-12-08T07:38:53.414Z,93.22
2022-12-08T07:41:25.489Z,93.09
2022-12-08T07:43:54.421Z,93.09
2022-12-08T07:46:25.362Z,92.24
2022-12-08T07:48:55.202Z,92.48
2022-12-08T07:51:24.913Z,92.03
2022-12-08T07:53:54.594Z,91.96
2022-12-08T07:56:23.619Z,92.00
2022-12-08T07:58:51.999Z,90.71
2022-12-08T08:01:31.890Z,91.63
2022-12-08T08:04:04.693Z,90.79
2022-12-08T08:06:33.897Z,90.28
2022-12-08T08:09:01.790Z,90.35
2022-12-08T08:11:29.516Z,90.38
2022-12-08T08:13:57.817Z,90.37
2022-12-08T08:16:25.453Z,90.05
2022-12-08T08:18:53.821Z,90.45
2022-12-08T08:21:45.058Z,90.86
2022-12-08T08:24:11.105Z,90.22
2022-12-08T08:26:38.714Z,90.09
2022-12-08T08:29:07.210Z,89.56
2022-12-08T08:31:34.949Z,89.82
2022-12-08T08:34:06.375Z,89.69
2022-12-08T08:36:35.433Z,89.48
2022-12-08T08:39:04.586Z,90.15
2022-12-08T08:41:32.378Z,89.90
2022-12-08T08:44:00.268Z,90.68
2022-12-08T08:46:28.133Z,90.26
2022-12-08T08:48:56.366Z,90.31
2022-12-08T08:51:24.018Z,90.22
2022-12-08T08:53:51.976Z,89.08
2022-12-08T08:56:20.014Z,88.52
2022-12-08T08:58:49.568Z,88.42
2022-12-08T09:01:24.064Z,88.25
2022-12-08T09:03:53.334Z,87.99
2022-12-08T09:06:21.545Z,87.72
2022-12-08T09:08:50.092Z,88.57
2022-12-08T09:11:18.813Z,88.77
2022-12-08T09:13:51.949Z,88.60
2022-12-08T09:16:20.067Z,88.75
2022-12-08T09:18:51.478Z,88.79
2022-12-08T09:21:23.779Z,88.81
2022-12-08T09:23:57.653Z,88.74
2022-12-08T09:26:28.096Z,88.34
2022-12-08T09:28:57.173Z,88.17
2022-12-08T09:31:25.810Z,88.19
2022-12-08T09:33:53.830Z,88.12
2022-12-08T09:36:21.698Z,88.23
2022-12-08T09:38:51.200Z,88.03
2022-12-08T09:41:48.335Z,88.35
2022-12-08T09:44:29.101Z,88.15
2022-12-08T09:46:58.743Z,88.59
2022-12-08T09:49:47.192Z,88.25
2022-12-08T09:52:58.058Z,89.42
2022-12-08T09:55:57.739Z,89.65
2022-12-08T09:58:28.148Z,89.71
2022-12-08T10:00:56.574Z,89.06
2022-12-08T10:03:29.848Z,88.79
2022-12-08T10:06:50.971Z,88.61
2022-12-08T10:09:57.739Z,88.74
2022-12-08T10:12:47.778Z,88.28
2022-12-08T10:15:18.090Z,89.10
2022-12-08T10:17:49.608Z,89.07
2022-12-08T10:20:29.397Z,88.77
2022-12-08T10:23:12.669Z,89.16
2022-12-08T10:25:53.562Z,89.06
2022-12-08T10:28:21.471Z,89.40
2022-12-08T10:30:49.082Z,89.55
2022-12-08T10:33:20.883Z,90.28
2022-12-08T10:35:54.681Z,91.00
2022-12-08T10:38:31.677Z,90.99
2022-12-08T10:41:20.847Z,91.90
2022-12-08T10:43:58.224Z,91.95
2022-12-08T10:46:28.447Z,92.33
2022-12-08T10:49:11.973Z,92.29
2022-12-08T10:51:43.581Z,92.27
2022-12-08T10:54:38.726Z,92.41
2022-12-08T10:57:06.283Z,92.05
2022-12-08T10:59:34.612Z,92.24
2022-12-08T11:02:02.234Z,92.05
2022-12-08T11:04:38.370Z,92.62
2022-12-08T11:07:08.844Z,92.54
2022-12-08T11:09:49.118Z,92.88
2022-12-08T11:12:22.070Z,93.55
2022-12-08T11:15:05.314Z,93.76
2022-12-08T11:17:40.668Z,94.51
2022-12-08T11:20:11.544Z,94.12
2022-12-08T11:22:56.567Z,94.68
2022-12-08T11:25:27.382Z,94.61
2022-12-08T11:28:00.649Z,95.04
2022-12-08T11:30:38.934Z,95.12
2022-12-08T11:33:28.639Z,94.93
2022-12-08T11:36:10.282Z,95.72
2022-12-08T11:38:46.442Z,96.04
2022-12-08T11:41:26.315Z,96.09
2022-12-08T11:44:10.272Z,96.12
2022-12-08T11:47:01.131Z,96.17
2022-12-08T11:49:39.531Z,96.21
2022-12-08T11:52:29.472Z,95.98
2022-12-08T11:55:19.006Z,95.83
2022-12-08T11:57:48.703Z,96.23
2022-12-08T12:00:17.236Z,96.28
2022-12-08T12:02:54.755Z,96.62
2022-12-08T12:06:38.342Z,97.29
2022-12-08T12:09:39.211Z,96.84
2022-12-08T12:12:25.276Z,96.82
2022-12-08T12:15:08.058Z,96.79
2022-12-08T12:18:25.642Z,96.77
2022-12-08T12:21:16.368Z,96.68
2022-12-08T12:24:26.073Z,96.84
2022-12-08T12:27:08.472Z,97.00
2022-12-08T12:29:38.935Z,97.63
2022-12-08T12:32:10.524Z,97.92
2022-12-08T12:34:52.348Z,98.26
2022-12-08T12:37:36.347Z,98.56
2022-12-08T12:40:16.259Z,98.38
2022-12-08T12:42:56.093Z,98.64
2022-12-08T12:45:33.188Z,99.10
2022-12-08T12:48:01.049Z,99.27
2022-12-08T12:50:35.022Z,99.74
2022-12-08T12:53:15.844Z,100.00
2022-12-08T12:55:46.327Z,100.00
2022-12-08T12:58:32.141Z,100.00
2022-12-08T13:01:12.148Z,100.00
2022-12-08T13:04:08.464Z,100.00
2022-12-08T13:06:46.113Z,100.00
2022-12-08T13:09:28.140Z,100.00
2022-12-08T13:12:01.124Z,100.00
2022-12-08T13:14:49.516Z,100.00
2022-12-08T13:17:37.342Z,100.00
2022-12-08T13:20:17.511Z,100.00
2022-12-08T13:22:54.758Z,100.00
2022-12-08T13:25:41.146Z,100.00
2022-12-08T13:28:31.101Z,100.00
2022-12-08T13:31:01.953Z,100.00
2022-12-08T13:33:40.905Z,100.00
2022-12-08T13:36:26.529Z,100.00
2022-12-08T13:38:58.203Z,100.00
2022-12-08T13:41:58.518Z,100.00
2022-12-08T13:57:28.751Z,100.00
2022-12-08T14:00:02.712Z,100.00
2022-12-08T14:02:47.876Z,100.00
2022-12-08T14:05:40.527Z,100.00
2022-12-08T14:09:00.067Z,100.00
2022-12-08T14:11:35.956Z,100.00
2022-12-08T14:14:32.514Z,100.00
2022-12-08T14:17:16.483Z,100.00
2022-12-08T14:19:53.597Z,100.00
2022-12-08T14:22:21.936Z,100.00
2022-12-08T14:24:55.355Z,100.00
2022-12-08T14:27:26.628Z,100.00
2022-12-08T14:30:01.612Z,100.00
2022-12-08T14:32:30.223Z,100.00
2022-12-08T14:35:08.953Z,100.00
2022-12-08T14:37:50.709Z,100.00
2022-12-08T14:40:38.486Z,100.00
2022-12-08T14:43:09.166Z,100.00
2022-12-08T14:45:42.616Z,100.00
2022-12-08T14:48:21.290Z,100.00
2022-12-08T14:50:54.898Z,100.00
2022-12-08T14:53:24.293Z,100.00
2022-12-08T14:55:52.420Z,100.00
2022-12-08T14:58:30.311Z,100.00
2022-12-08T15:01:00.208Z,100.00
2022-12-08T15:03:31.534Z,100.00
2022-12-08T15:06:06.291Z,100.00
2022-12-08T15:08:50.808Z,100.00
2022-12-08T15:11:30.152Z,100.00
2022-12-08T15:13:58.826Z,100.00
2022-12-08T15:16:36.343Z,100.00
2022-12-08T15:19:40.895Z,100.00
2022-12-08T15:22:22.997Z,100.00
2022-12-08T15:24:50.828Z,100.00
2022-12-08T15:27:21.776Z,100.00
2022-12-08T15:29:51.381Z,100.00
2022-12-08T15:32:24.237Z,100.00
2022-12-08T15:34:52.304Z,100.00
2022-12-08T15:37:26.680Z,100.00
2022-12-08T15:39:54.978Z,100.00
2022-12-08T15:42:22.626Z,100.00
2022-12-08T15:44:51.863Z,100.00
2022-12-08T15:47:24.747Z,100.00
2022-12-08T15:49:53.474Z,100.00
2022-12-08T15:52:25.039Z,100.00
2022-12-08T15:54:53.255Z,100.00
2022-12-08T15:57:59.153Z,100.00
2022-12-08T16:00:55.558Z,100.00
2022-12-08T16:09:40.753Z,100.00
2022-12-08T16:13:40.434Z,100.00
2022-12-08T16:18:24.107Z,100.00
2022-12-08T16:21:09.754Z,100.00
2022-12-08T16:23:44.607Z,100.00
2022-12-08T16:29:20.461Z,100.00
2022-12-08T16:31:49.332Z,100.00
2022-12-08T16:34:17.339Z,100.00
2022-12-08T16:36:44.951Z,100.00
2022-12-08T16:39:14.625Z,100.00
2022-12-08T16:42:00.691Z,100.00
2022-12-08T16:44:28.678Z,100.00
2022-12-08T16:46:56.262Z,100.00
2022-12-08T16:49:25.108Z,100.00
2022-12-08T16:51:52.868Z,100.00
2022-12-08T16:54:20.747Z,100.00
2022-12-08T16:56:48.360Z,100.00
2022-12-08T16:59:16.161Z,100.00
2022-12-08T17:01:43.731Z,100.00
2022-12-08T17:04:31.134Z,100.00
2022-12-08T17:06:59.572Z,100.00
2022-12-08T17:09:28.607Z,100.00
2022-12-08T17:12:01.827Z,100.00
2022-12-08T17:14:36.332Z,100.00
2022-12-08T17:17:04.271Z,100.00
2022-12-08T17:19:33.146Z,100.00
2022-12-08T17:22:02.300Z,100.00
2022-12-08T17:24:30.648Z,100.00
2022-12-08T17:27:04.073Z,100.00
2022-12-08T17:29:33.378Z,100.00
2022-12-08T17:32:01.419Z,100.00
2022-12-08T17:34:29.568Z,100.00
2022-12-08T17:36:57.316Z,100.00
2022-12-08T17:39:25.812Z,100.00
2022-12-08T17:41:53.546Z,100.00
2022-12-08T17:44:21.801Z,100.00
2022-12-08T17:46:52.961Z,100.00
2022-12-08T17:49:29.766Z,100.00
2022-12-08T17:52:01.278Z,100.00
2022-12-08T17:54:30.449Z,100.00
2022-12-08T17:56:58.858Z,100.00
2022-12-08T17:59:28.826Z,100.00
2022-12-08T18:01:58.684Z,100.00
2022-12-08T18:04:28.145Z,100.00
2022-12-08T18:06:58.333Z,100.00
2022-12-08T18:09:26.408Z,100.00
2022-12-08T18:11:53.987Z,100.00
2022-12-08T18:14:22.041Z,100.00
2022-12-08T18:16:49.666Z,100.00
2022-12-08T18:19:18.589Z,100.00
2022-12-08T18:21:46.378Z,100.00
2022-12-08T18:24:22.505Z,100.00
2022-12-08T18:26:52.983Z,100.00
2022-12-08T18:29:23.161Z,100.00
2022-12-08T18:31:51.866Z,100.00
2022-12-08T18:34:20.526Z,100.00
2022-12-08T18:36:48.816Z,100.00
2022-12-08T18:39:32.560Z,100.00
2022-12-08T18:42:22.886Z,100.00
2022-12-08T18:44:52.848Z,100.00
2022-12-08T18:47:20.557Z,100.00
2022-12-08T18:49:48.778Z,100.00
2022-12-08T18:52:20.423Z,100.00
2022-12-08T18:55:06.196Z,100.00
2022-12-08T18:57:38.916Z,100.00
2022-12-08T19:00:10.114Z,100.00
2022-12-08T19:02:38.922Z,100.00
2022-12-08T19:05:09.155Z,100.00
2022-12-08T19:07:37.661Z,100.00
2022-12-08T19:10:07.127Z,100.00
2022-12-08T19:12:35.021Z,100.00
2022-12-08T19:15:03.245Z,100.00
2022-12-08T19:17:31.091Z,100.00
2022-12-08T19:19:59.157Z,100.00
2022-12-08T19:22:26.767Z,100.00
2022-12-08T19:24:54.735Z,100.00
2022-12-08T19:27:22.448Z,100.00
2022-12-08T19:29:50.691Z,100.00
2022-12-08T19:32:18.395Z,100.00
2022-12-08T19:34:46.632Z,100.00
2022-12-08T19:37:15.373Z,100.00
2022-12-08T19:40:01.997Z,100.00
2022-12-08T19:42:48.431Z,100.00
2022-12-08T19:45:21.675Z,100.00
2022-12-08T19:47:49.421Z,100.00
2022-12-08T19:50:37.000Z,100.00
2022-12-08T19:53:14.973Z,100.00
2022-12-08T19:55:44.428Z,100.00
2022-12-08T19:58:12.273Z,100.00
2022-12-08T20:00:41.465Z,100.00
2022-12-08T20:03:10.776Z,100.00
2022-12-08T20:05:41.911Z,100.00
2022-12-08T20:08:10.080Z,100.00
2022-12-08T20:10:42.627Z,100.00
2022-12-08T20:13:29.906Z,100.00
2022-12-08T20:15:58.485Z,100.00
2022-12-08T20:18:26.218Z,100.00
2022-12-08T20:20:54.244Z,100.00
2022-12-08T20:23:22.226Z,100.00
2022-12-08T20:25:50.358Z,100.00
2022-12-08T20:28:19.135Z,100.00
2022-12-08T20:30:49.075Z,100.00
2022-12-08T20:33:19.087Z,100.00
2022-12-08T20:35:48.146Z,100.00
2022-12-08T20:38:17.356Z,100.00
2022-12-08T20:40:47.299Z,100.00
2022-12-08T20:43:14.796Z,100.00
2022-12-08T20:45:43.078Z,100.00
2022-12-08T20:48:10.984Z,100.00
2022-12-08T20:50:38.942Z,100.00
2022-12-08T20:53:06.801Z,100.00
2022-12-08T20:55:35.735Z,100.00
2022-12-08T20:58:03.779Z,100.00
2022-12-08T21:00:31.950Z,100.00
2022-12-08T21:02:59.712Z,100.00
2022-12-08T21:05:27.913Z,100.00
2022-12-08T21:07:56.219Z,100.00
2022-12-08T21:10:24.319Z,100.00
2022-12-08T21:12:51.958Z,100.00
2022-12-08T21:15:19.887Z,100.00
2022-12-08T21:17:47.718Z,100.00
2022-12-08T21:20:15.956Z,100.00
2022-12-08T21:22:43.796Z,100.00
2022-12-08T21:25:11.972Z,100.00
2022-12-08T21:27:40.317Z,100.00
2022-12-08T21:30:10.278Z,100.00
2022-12-08T21:32:39.742Z,100.00
2022-12-08T21:35:08.344Z,100.00
2022-12-08T21:37:36.159Z,100.00
2022-12-08T21:40:07.701Z,100.00
2022-12-08T21:42:45.052Z,100.00
2022-12-08T21:45:17.671Z,100.00
2022-12-08T21:47:47.260Z,100.00
2022-12-08T21:50:16.153Z,100.00
2022-12-08T21:52:46.863Z,100.00
2022-12-08T21:55:19.156Z,100.00
2022-12-08T21:57:47.494Z,100.00
2022-12-08T22:00:17.734Z,100.00
2022-12-08T22:02:46.581Z,100.00
2022-12-08T22:05:15.022Z,100.00
2022-12-08T22:07:42.804Z,100.00
2022-12-08T22:10:12.209Z,100.00
2022-12-08T22:12:41.107Z,100.00
2022-12-08T22:15:11.464Z,100.00
2022-12-08T22:17:41.735Z,100.00
2022-12-08T22:20:14.981Z,100.00
2022-12-08T22:22:43.146Z,100.00
2022-12-08T22:25:12.063Z,100.00
2022-12-08T22:27:41.565Z,100.00
2022-12-08T22:30:10.850Z,100.00
2022-12-08T22:32:39.319Z,100.00
2022-12-08T22:35:07.856Z,100.00
2022-12-08T22:37:35.645Z,100.00
2022-12-08T22:40:04.827Z,100.00
2022-12-08T22:42:33.068Z,100.00
2022-12-08T22:45:01.449Z,100.00
2022-12-08T22:47:29.134Z,100.00
2022-12-08T22:49:57.191Z,100.00
2022-12-08T22:52:24.920Z,100.00
2022-12-08T22:54:53.059Z,100.00
2022-12-08T22:57:20.728Z,100.00
2022-12-08T22:59:48.661Z,100.00
2022-12-08T23:02:16.281Z,100.00
2022-12-08T23:04:46.553Z,100.00
2022-12-08T23:07:14.484Z,100.00
2022-12-08T23:09:42.727Z,100.00
2022-12-08T23:12:10.601Z,100.00
2022-12-08T23:14:38.611Z,100.00
2022-12-08T23:17:06.291Z,100.00
2022-12-08T23:19:37.617Z,100.00
2022-12-08T23:22:05.482Z,100.00
2022-12-08T23:24:34.015Z,100.00
2022-12-08T23:27:02.317Z,100.00
2022-12-08T23:29:30.766Z,100.00
2022-12-08T23:31:58.584Z,100.00
2022-12-08T23:34:26.833Z,100.00
2022-12-08T23:36:54.774Z,100.00
2022-12-08T23:39:24.887Z,100.00
2022-12-08T23:41:52.823Z,100.00
2022-12-08T23:44:20.858Z,100.00
2022-12-08T23:46:48.634Z,100.00
2022-12-08T23:49:16.959Z,100.00
2022-12-08T23:51:44.803Z,100.00
2022-12-08T23:54:13.033Z,100.00
2022-12-08T23:56:40.837Z,100.00
2022-12-08T23:59:09.196Z,100.00
